Terminal Aerodrome Forecast
Issued by NWS Charleston, WV

Current Version | Previous Version | Text Only | Print | Product List | Glossary On
Versions: 1 2 3 4 5 6 7 8 9 10 11 12 13 14 15 16 17 18 19 20 21
000
FTUS41 KRLX 231914 AAA
TAFBKW
TAF AMD
KBKW 231914Z 2319/2418 25005KT P6SM SCT040
      TEMPO 2323/2403 2SM +TSRA OVC025CB
     FM240300 25005KT 5SM +SHRA VCTS BKN050CB
     FM240900 VRB03KT P6SM BKN015
     FM241500 27005KT P6SM BKN035=

USA.gov is the U.S. government's official web portal to all federal, state and local government web resources and services.